Terminal Aerodrome Forecast
Issued by NWS

Home | Current Version | Previous Version | Text Only | Print | Product List | Glossary On
Versions: 1 2 3 4 5 6 7 8 9 10 11 12 13 14
000
FTUS41 KBTV 231100
TAFMSS
TAF
KMSS 231120Z 2312/2412 22011KT P6SM VCTS BKN050CB
      TEMPO 2312/2313 3SM -TSRA
     FM231400 23012KT 4SM -SHRA BKN050
     FM231900 31010KT P6SM BKN040 OVC050
     FM240200 02005KT P6SM SCT025 BKN050=

USA.gov is the U.S. government's official web portal to all federal, state and local government web resources and services.